Time;durP1;ratioP1;P1;durP2;ratioP2;P2;SDS_P1;SDS_P2;PMS_P1;PMS_P2;Temp;Humidity;BMP_temperature;BMP_pressure;BME280_temperature;BME280_humidity;BME280_pressure;Samples;Min_cycle;Max_cycle;Signal;HPM_P1;HPM_P2
2021/05/05 00:02:15;;;;;;;5.05;1.90;;;;;;;;;;6185024;23;20013;-47
2021/05/05 00:04:41;;;;;;;3.53;2.00;;;;;;;;;;6185350;23;20075;-47
2021/05/05 00:07:07;;;;;;;3.95;2.20;;;;;;;;;;6185319;23;20461;-48
2021/05/05 00:09:33;;;;;;;8.77;2.25;;;;;;;;;;6184056;23;20002;-47
2021/05/05 00:11:59;;;;;;;3.58;1.98;;;;;;;;;;6184815;23;20009;-47
2021/05/05 00:14:25;;;;;;;2.03;1.80;;;;;;;;;;6185224;23;20360;-47
2021/05/05 00:16:51;;;;;;;2.28;1.77;;;;;;;;;;6185712;23;20010;-47
2021/05/05 00:19:18;;;;;;;3.15;1.90;;;;;;;;;;6184647;23;20093;-46
2021/05/05 00:21:44;;;;;;;3.40;1.92;;;;;;;;;;6185366;23;20001;-47
2021/05/05 00:24:11;;;;;;;4.55;2.30;;;;;;;;;;6185497;23;20071;-47
2021/05/05 00:26:37;;;;;;;3.17;2.25;;;;;;;;;;6184961;23;20059;-46
2021/05/05 00:29:03;;;;;;;2.00;1.58;;;;;;;;;;6184915;23;20001;-48
2021/05/05 00:31:29;;;;;;;3.03;2.03;;;;;;;;;;6185237;23;20029;-47
2021/05/05 00:33:55;;;;;;;3.60;2.13;;;;;;;;;;6185643;23;20005;-47
2021/05/05 00:36:21;;;;;;;2.88;1.58;;;;;;;;;;6185504;23;19993;-48
2021/05/05 00:38:47;;;;;;;4.07;1.80;;;;;;;;;;6185099;23;20063;-47
2021/05/05 00:41:14;;;;;;;3.15;1.77;;;;;;;;;;6184632;23;20005;-47
2021/05/05 00:43:40;;;;;;;2.92;1.92;;;;;;;;;;6185551;23;20088;-47
2021/05/05 00:46:06;;;;;;;7.63;1.80;;;;;;;;;;6185827;23;19993;-47
2021/05/05 00:48:32;;;;;;;2.83;1.73;;;;;;;;;;6186319;23;20326;-48
2021/05/05 00:50:59;;;;;;;3.30;1.92;;;;;;;;;;6187201;23;20001;-46
2021/05/05 00:53:25;;;;;;;4.47;2.13;;;;;;;;;;6187066;23;20011;-48
2021/05/05 00:55:51;;;;;;;3.42;1.88;;;;;;;;;;6186886;23;20001;-46
2021/05/05 00:58:17;;;;;;;3.22;2.10;;;;;;;;;;6186486;23;20024;-48
2021/05/05 01:00:44;;;;;;;4.15;2.22;;;;;;;;;;6186508;23;20001;-47
2021/05/05 01:03:11;;;;;;;6.63;2.47;;;;;;;;;;6186641;23;20389;-47
2021/05/05 01:05:37;;;;;;;4.13;2.47;;;;;;;;;;6186561;23;20004;-47
2021/05/05 01:08:03;;;;;;;3.90;2.30;;;;;;;;;;6186178;23;20012;-47
2021/05/05 01:10:29;;;;;;;2.72;2.10;;;;;;;;;;6186367;23;20001;-48
2021/05/05 01:12:56;;;;;;;2.78;1.80;;;;;;;;;;6186557;23;20385;-47
2021/05/05 01:15:22;;;;;;;1.17;0.80;;;;;;;;;;6186652;23;20001;-47
2021/05/05 01:17:48;;;;;;;0.70;0.70;;;;;;;;;;6186535;23;20005;-47
2021/05/05 01:20:14;;;;;;;0.50;0.50;;;;;;;;;;6185887;23;20016;-47
2021/05/05 01:22:41;;;;;;;0.30;0.30;;;;;;;;;;6186918;23;20009;-47
2021/05/05 01:25:07;;;;;;;0.40;0.40;;;;;;;;;;6186842;23;20039;-47
2021/05/05 01:27:33;;;;;;;0.20;0.20;;;;;;;;;;6186766;23;20005;-46
2021/05/05 01:29:59;;;;;;;0.20;0.20;;;;;;;;;;6186601;23;20007;-46
2021/05/05 01:32:26;;;;;;;0.95;0.52;;;;;;;;;;6186523;23;20012;-47
2021/05/05 01:34:52;;;;;;;0.30;0.30;;;;;;;;;;6186599;23;20001;-47
2021/05/05 01:37:18;;;;;;;0.28;0.28;;;;;;;;;;6186792;23;20008;-46
2021/05/05 01:39:45;;;;;;;0.55;0.35;;;;;;;;;;6185983;23;20393;-48
2021/05/05 01:42:11;;;;;;;0.35;0.30;;;;;;;;;;6186152;23;20059;-47
2021/05/05 01:44:38;;;;;;;0.30;0.30;;;;;;;;;;6186733;23;20004;-47
2021/05/05 01:47:05;;;;;;;1.02;0.55;;;;;;;;;;6186772;23;20001;-47
2021/05/05 01:49:32;;;;;;;0.50;0.25;;;;;;;;;;6185980;23;20032;-47
2021/05/05 01:52:01;;;;;;;0.30;0.30;;;;;;;;;;6186732;23;20017;-47
2021/05/05 01:54:27;;;;;;;1.35;0.65;;;;;;;;;;6186780;23;20021;-47
2021/05/05 01:56:53;;;;;;;0.85;0.35;;;;;;;;;;6185207;23;20079;-47
2021/05/05 01:59:19;;;;;;;0.20;0.20;;;;;;;;;;6186782;23;20305;-48
2021/05/05 02:01:45;;;;;;;0.47;0.32;;;;;;;;;;6186682;23;19994;-46
2021/05/05 02:04:11;;;;;;;0.30;0.30;;;;;;;;;;6186087;23;20009;-47
2021/05/05 02:06:37;;;;;;;0.70;0.35;;;;;;;;;;6186182;23;20059;-47
2021/05/05 02:09:04;;;;;;;0.93;0.38;;;;;;;;;;6186008;23;20479;-48
2021/05/05 02:11:30;;;;;;;0.30;0.30;;;;;;;;;;6186544;23;20088;-47
2021/05/05 02:13:56;;;;;;;1.88;0.40;;;;;;;;;;6185984;23;20001;-47
2021/05/05 02:16:22;;;;;;;0.40;0.40;;;;;;;;;;6186094;23;20353;-46
2021/05/05 02:18:48;;;;;;;2.95;0.35;;;;;;;;;;6185787;23;20024;-47
2021/05/05 02:21:14;;;;;;;0.45;0.45;;;;;;;;;;6185970;23;20036;-47
2021/05/05 02:23:40;;;;;;;0.30;0.30;;;;;;;;;;6186350;23;20051;-47
2021/05/05 02:26:07;;;;;;;0.20;0.20;;;;;;;;;;6186202;23;20051;-47
2021/05/05 02:28:33;;;;;;;2.10;0.60;;;;;;;;;;6179556;23;20005;-46
2021/05/05 02:30:59;;;;;;;0.30;0.30;;;;;;;;;;6186319;23;20024;-47
2021/05/05 02:33:26;;;;;;;0.30;0.30;;;;;;;;;;6186377;23;20030;-47
2021/05/05 02:35:52;;;;;;;0.88;0.30;;;;;;;;;;6186068;23;20008;-47
2021/05/05 02:38:18;;;;;;;0.73;0.47;;;;;;;;;;6185913;23;20017;-46
2021/05/05 02:40:45;;;;;;;0.38;0.38;;;;;;;;;;6186238;23;19997;-46
2021/05/05 02:43:11;;;;;;;2.25;0.52;;;;;;;;;;6185892;23;20016;-46
2021/05/05 02:45:37;;;;;;;0.43;0.38;;;;;;;;;;6185584;23;20321;-47
2021/05/05 02:48:03;;;;;;;0.40;0.40;;;;;;;;;;6185746;23;20427;-47
2021/05/05 02:50:29;;;;;;;2.08;0.65;;;;;;;;;;6185498;23;20075;-47
2021/05/05 02:52:55;;;;;;;1.25;0.35;;;;;;;;;;6186383;23;20032;-47
2021/05/05 02:55:21;;;;;;;0.28;0.28;;;;;;;;;;6185950;23;19997;-47
2021/05/05 02:57:47;;;;;;;0.50;0.50;;;;;;;;;;6185885;23;20027;-47
2021/05/05 03:00:13;;;;;;;1.13;0.45;;;;;;;;;;6185711;23;20447;-46
2021/05/05 03:02:39;;;;;;;4.00;0.65;;;;;;;;;;6186209;23;20012;-48
2021/05/05 03:05:05;;;;;;;0.98;0.38;;;;;;;;;;6185163;23;20001;-47
2021/05/05 03:07:31;;;;;;;0.20;0.20;;;;;;;;;;6185964;23;20008;-47
2021/05/05 03:09:57;;;;;;;0.30;0.30;;;;;;;;;;6185419;23;19997;-48
2021/05/05 03:12:23;;;;;;;1.17;0.50;;;;;;;;;;6185981;23;20009;-47
2021/05/05 03:14:49;;;;;;;1.27;0.50;;;;;;;;;;6185095;23;20027;-47
2021/05/05 03:17:16;;;;;;;2.72;0.60;;;;;;;;;;6185510;23;20080;-47
2021/05/05 03:19:42;;;;;;;0.38;0.38;;;;;;;;;;6184797;23;20055;-47
2021/05/05 03:22:08;;;;;;;0.50;0.50;;;;;;;;;;6185592;23;20005;-47
2021/05/05 03:24:34;;;;;;;0.63;0.40;;;;;;;;;;6185636;23;20005;-47
2021/05/05 03:27:00;;;;;;;0.38;0.38;;;;;;;;;;6185649;23;20135;-47
2021/05/05 03:29:26;;;;;;;0.20;0.20;;;;;;;;;;6185265;23;20020;-47
2021/05/05 03:31:52;;;;;;;0.30;0.30;;;;;;;;;;6185975;23;19997;-47
2021/05/05 03:34:19;;;;;;;0.52;0.30;;;;;;;;;;6185341;23;20076;-48
2021/05/05 03:36:45;;;;;;;0.40;0.40;;;;;;;;;;6185596;23;19997;-47
2021/05/05 03:39:11;;;;;;;0.57;0.40;;;;;;;;;;6185203;23;20012;-47
2021/05/05 03:41:37;;;;;;;0.50;0.50;;;;;;;;;;6185517;23;20001;-47
2021/05/05 03:44:05;;;;;;;0.40;0.40;;;;;;;;;;6185696;23;20058;-46
2021/05/05 03:46:31;;;;;;;1.60;0.55;;;;;;;;;;6185266;23;20016;-47
2021/05/05 03:48:57;;;;;;;0.20;0.20;;;;;;;;;;6184725;23;20001;-47
2021/05/05 03:51:24;;;;;;;1.23;0.40;;;;;;;;;;6185605;23;20001;-47
2021/05/05 03:53:50;;;;;;;1.23;0.40;;;;;;;;;;6185564;23;20008;-47
2021/05/05 03:56:16;;;;;;;0.20;0.20;;;;;;;;;;6184881;23;20005;-47
2021/05/05 03:58:42;;;;;;;0.40;0.40;;;;;;;;;;6184973;23;20016;-47
2021/05/05 04:01:08;;;;;;;0.55;0.40;;;;;;;;;;6185316;23;19998;-47
2021/05/05 04:03:34;;;;;;;0.47;0.47;;;;;;;;;;6185452;23;20389;-46
2021/05/05 04:06:00;;;;;;;0.50;0.50;;;;;;;;;;6185457;23;20001;-46
2021/05/05 04:08:26;;;;;;;0.40;0.40;;;;;;;;;;6185005;23;20270;-47
2021/05/05 04:10:52;;;;;;;0.32;0.32;;;;;;;;;;6185324;23;20009;-47
2021/05/05 04:13:18;;;;;;;2.50;0.60;;;;;;;;;;6185640;23;20001;-47
2021/05/05 04:15:44;;;;;;;0.45;0.45;;;;;;;;;;6185434;23;20012;-48
2021/05/05 04:18:10;;;;;;;0.57;0.30;;;;;;;;;;6182748;23;20436;-46
2021/05/05 04:20:36;;;;;;;0.40;0.40;;;;;;;;;;6183666;23;20012;-47
2021/05/05 04:23:02;;;;;;;0.35;0.30;;;;;;;;;;6185761;23;20005;-47
2021/05/05 04:25:28;;;;;;;1.25;0.30;;;;;;;;;;6185191;23;20085;-47
2021/05/05 04:27:54;;;;;;;0.75;0.68;;;;;;;;;;6185792;23;20354;-47
2021/05/05 04:30:21;;;;;;;0.63;0.50;;;;;;;;;;6185558;23;20060;-48
2021/05/05 04:32:47;;;;;;;0.52;0.50;;;;;;;;;;6185422;23;20013;-47
2021/05/05 04:35:14;;;;;;;0.93;0.60;;;;;;;;;;6186206;23;20005;-48
2021/05/05 04:37:40;;;;;;;0.60;0.50;;;;;;;;;;6186060;23;20036;-47
2021/05/05 04:40:06;;;;;;;1.33;0.65;;;;;;;;;;6185797;23;20404;-46
2021/05/05 04:42:32;;;;;;;0.35;0.35;;;;;;;;;;6186668;23;20009;-47
2021/05/05 04:45:01;;;;;;;1.27;0.57;;;;;;;;;;6186633;23;20036;-46
2021/05/05 04:47:28;;;;;;;1.38;0.52;;;;;;;;;;6186544;23;20005;-47
2021/05/05 04:49:54;;;;;;;0.85;0.50;;;;;;;;;;6185622;23;20028;-48
2021/05/05 04:52:20;;;;;;;1.55;0.65;;;;;;;;;;6186339;23;20390;-48
2021/05/05 04:54:46;;;;;;;0.52;0.32;;;;;;;;;;6185911;23;20105;-47
2021/05/05 04:57:12;;;;;;;0.50;0.50;;;;;;;;;;6186427;23;20524;-47
2021/05/05 04:59:38;;;;;;;2.20;0.57;;;;;;;;;;6185524;23;20013;-46
2021/05/05 05:02:04;;;;;;;0.95;0.60;;;;;;;;;;6185904;23;20109;-47
2021/05/05 05:04:30;;;;;;;1.63;0.63;;;;;;;;;;6185970;23;20440;-48
2021/05/05 05:06:56;;;;;;;0.40;0.40;;;;;;;;;;6184118;23;20850;-47
2021/05/05 05:09:22;;;;;;;0.68;0.50;;;;;;;;;;6183696;23;20382;-47
2021/05/05 05:11:48;;;;;;;0.30;0.30;;;;;;;;;;6186164;23;20005;-47
2021/05/05 05:14:14;;;;;;;0.50;0.40;;;;;;;;;;6185627;23;20477;-46
2021/05/05 05:16:40;;;;;;;0.50;0.50;;;;;;;;;;6185975;23;20092;-46
2021/05/05 05:19:06;;;;;;;3.17;1.08;;;;;;;;;;6185803;23;20084;-47
2021/05/05 05:21:32;;;;;;;0.60;0.55;;;;;;;;;;6186983;23;20460;-47
2021/05/05 05:23:58;;;;;;;2.53;0.50;;;;;;;;;;6186894;23;20056;-47
2021/05/05 05:26:24;;;;;;;0.30;0.30;;;;;;;;;;6186649;23;19997;-48
2021/05/05 05:28:50;;;;;;;2.70;0.40;;;;;;;;;;6186327;23;20009;-47
2021/05/05 05:31:16;;;;;;;2.17;0.40;;;;;;;;;;6185943;23;20005;-48
2021/05/05 05:33:42;;;;;;;0.38;0.38;;;;;;;;;;6185586;23;20001;-47
2021/05/05 05:36:08;;;;;;;0.32;0.32;;;;;;;;;;6186751;23;20032;-47
2021/05/05 05:38:34;;;;;;;0.60;0.50;;;;;;;;;;6185963;23;20031;-48
2021/05/05 05:41:00;;;;;;;9.02;0.73;;;;;;;;;;6186264;23;20047;-47
2021/05/05 05:43:26;;;;;;;0.55;0.55;;;;;;;;;;6185923;23;20293;-47
2021/05/05 05:45:52;;;;;;;0.52;0.50;;;;;;;;;;6186312;23;20008;-48
2021/05/05 05:48:18;;;;;;;1.40;0.57;;;;;;;;;;6185117;23;20063;-47
2021/05/05 05:50:44;;;;;;;0.77;0.50;;;;;;;;;;6184256;23;20059;-47
2021/05/05 05:53:10;;;;;;;1.90;0.82;;;;;;;;;;6185339;23;20009;-48
2021/05/05 05:55:41;;;;;;;2.90;0.98;;;;;;;;;;6185958;23;20005;-47
2021/05/05 05:58:06;;;;;;;;;;;;;;;;;;6185963;23;20016;-47
2021/05/05 06:00:33;;;;;;;0.60;0.50;;;;;;;;;;6185402;23;19900;-48
2021/05/05 06:02:59;;;;;;;0.40;0.40;;;;;;;;;;6186195;23;20001;-47
2021/05/05 06:05:25;;;;;;;0.30;0.30;;;;;;;;;;6186837;23;20048;-48
2021/05/05 06:07:51;;;;;;;0.40;0.40;;;;;;;;;;6186026;23;20076;-47
2021/05/05 06:10:17;;;;;;;0.38;0.38;;;;;;;;;;6185939;23;20109;-47
2021/05/05 06:12:43;;;;;;;0.65;0.47;;;;;;;;;;6186151;23;20024;-47
2021/05/05 06:15:10;;;;;;;0.40;0.40;;;;;;;;;;6186646;23;20032;-47
2021/05/05 06:17:36;;;;;;;1.58;0.40;;;;;;;;;;6186170;23;20005;-47
2021/05/05 06:20:03;;;;;;;0.68;0.40;;;;;;;;;;6185658;23;20013;-47
2021/05/05 06:22:29;;;;;;;0.57;0.57;;;;;;;;;;6186538;23;20005;-47
2021/05/05 06:24:55;;;;;;;0.50;0.50;;;;;;;;;;6186131;23;20005;-47
2021/05/05 06:27:21;;;;;;;0.32;0.32;;;;;;;;;;6185669;23;20363;-47
2021/05/05 06:29:48;;;;;;;2.42;0.40;;;;;;;;;;6185730;23;20476;-46
2021/05/05 06:32:14;;;;;;;3.00;0.43;;;;;;;;;;6186471;23;20028;-48
2021/05/05 06:34:40;;;;;;;0.40;0.40;;;;;;;;;;6186149;23;20306;-47
2021/05/05 06:37:06;;;;;;;0.30;0.30;;;;;;;;;;6185602;23;20009;-48
2021/05/05 06:39:33;;;;;;;0.35;0.35;;;;;;;;;;6186149;23;20056;-48
2021/05/05 06:41:59;;;;;;;0.20;0.20;;;;;;;;;;6185957;23;20001;-47
2021/05/05 06:44:25;;;;;;;0.38;0.38;;;;;;;;;;6185803;23;20305;-47
2021/05/05 06:46:54;;;;;;;0.98;0.40;;;;;;;;;;6186522;23;20072;-46
2021/05/05 06:49:21;;;;;;;0.30;0.30;;;;;;;;;;6185500;23;19997;-47
2021/05/05 06:51:47;;;;;;;0.47;0.47;;;;;;;;;;6185734;23;20011;-46
2021/05/05 06:54:13;;;;;;;0.38;0.38;;;;;;;;;;6186199;23;20001;-48
2021/05/05 06:56:39;;;;;;;0.47;0.47;;;;;;;;;;6185878;23;19998;-47
2021/05/05 06:59:05;;;;;;;0.30;0.30;;;;;;;;;;6185600;23;20397;-46
2021/05/05 07:01:31;;;;;;;2.63;0.73;;;;;;;;;;6185898;23;20080;-47
2021/05/05 07:03:57;;;;;;;0.47;0.47;;;;;;;;;;6186290;23;20005;-46
2021/05/05 07:06:23;;;;;;;0.40;0.40;;;;;;;;;;6186117;23;20008;-46
2021/05/05 07:08:49;;;;;;;0.60;0.60;;;;;;;;;;6183663;23;20001;-47
2021/05/05 07:11:16;;;;;;;0.98;0.60;;;;;;;;;;6184784;23;20414;-46
2021/05/05 07:13:42;;;;;;;0.63;0.45;;;;;;;;;;6185304;23;20047;-47
2021/05/05 07:16:08;;;;;;;0.77;0.50;;;;;;;;;;6185799;23;20001;-46
2021/05/05 07:18:34;;;;;;;0.75;0.73;;;;;;;;;;6185126;23;20023;-47
2021/05/05 07:21:00;;;;;;;1.42;0.70;;;;;;;;;;6185258;23;20317;-47
2021/05/05 07:23:26;;;;;;;3.72;0.63;;;;;;;;;;6184829;23;20012;-46
2021/05/05 07:25:52;;;;;;;4.30;0.85;;;;;;;;;;6185946;23;20009;-48
2021/05/05 07:28:19;;;;;;;4.45;0.70;;;;;;;;;;6184354;23;20448;-47
2021/05/05 07:30:44;;;;;;;1.75;0.85;;;;;;;;;;6184703;23;20005;-48
2021/05/05 07:33:13;;;;;;;3.53;0.80;;;;;;;;;;6184941;23;20035;-46
2021/05/05 07:35:40;;;;;;;1.65;0.70;;;;;;;;;;6185942;23;20040;-47
2021/05/05 07:50:50;;;;;;;3.78;0.65;;;;;;;;;;6183717;23;20009;-46
2021/05/05 07:53:16;;;;;;;3.15;0.60;;;;;;;;;;6183339;23;20009;-46
2021/05/05 07:55:42;;;;;;;1.50;0.70;;;;;;;;;;6183879;23;20063;-47
2021/05/05 07:58:09;;;;;;;4.82;0.73;;;;;;;;;;6183652;23;20496;-47
2021/05/05 08:00:34;;;;;;;2.50;0.90;;;;;;;;;;6184569;23;20463;-48
2021/05/05 08:03:00;;;;;;;3.45;0.90;;;;;;;;;;6184360;23;20032;-47
2021/05/05 08:05:26;;;;;;;1.65;0.82;;;;;;;;;;6185322;23;20076;-46
2021/05/05 08:07:54;;;;;;;5.13;0.85;;;;;;;;;;6184624;23;20010;-47
2021/05/05 08:10:20;;;;;;;6.15;1.30;;;;;;;;;;6184286;23;20072;-47
2021/05/05 08:12:46;;;;;;;5.35;1.08;;;;;;;;;;6184947;23;19997;-48
2021/05/05 08:15:12;;;;;;;0.45;0.45;;;;;;;;;;6185139;23;20076;-47
2021/05/05 08:17:39;;;;;;;0.82;0.70;;;;;;;;;;6184802;23;20009;-47
2021/05/05 08:20:05;;;;;;;0.57;0.57;;;;;;;;;;6184165;23;20030;-47
2021/05/05 08:22:31;;;;;;;1.65;1.02;;;;;;;;;;6185068;23;20295;-46
2021/05/05 08:24:57;;;;;;;3.88;0.90;;;;;;;;;;6184111;23;20016;-47
2021/05/05 08:27:23;;;;;;;4.25;0.93;;;;;;;;;;6185162;23;20009;-47
2021/05/05 08:29:52;;;;;;;4.70;0.90;;;;;;;;;;6184177;23;20032;-47
2021/05/05 08:32:18;;;;;;;2.08;0.90;;;;;;;;;;6184576;23;20001;-46
2021/05/05 08:34:44;;;;;;;2.03;1.17;;;;;;;;;;6184965;23;19993;-48
2021/05/05 08:37:10;;;;;;;4.63;1.63;;;;;;;;;;6183685;23;20012;-47
2021/05/05 08:39:36;;;;;;;5.78;0.90;;;;;;;;;;6183955;23;20413;-47
2021/05/05 08:42:02;;;;;;;2.63;0.70;;;;;;;;;;6184522;23;20012;-48
2021/05/05 08:44:28;;;;;;;5.53;1.00;;;;;;;;;;6184350;23;20009;-48
2021/05/05 08:46:55;;;;;;;4.50;0.90;;;;;;;;;;6185006;23;20025;-46
2021/05/05 08:49:21;;;;;;;5.65;0.73;;;;;;;;;;6183200;23;20281;-48
2021/05/05 08:51:47;;;;;;;0.25;0.25;;;;;;;;;;6184061;23;20025;-47
2021/05/05 08:54:14;;;;;;;5.43;1.20;;;;;;;;;;6184366;23;20004;-47
2021/05/05 08:56:40;;;;;;;5.65;1.45;;;;;;;;;;6184552;23;20319;-47
2021/05/05 08:59:11;;;;;;;1.08;0.70;;;;;;;;;;6184362;23;20043;-48
2021/05/05 09:01:37;;;;;;;3.28;1.00;;;;;;;;;;6185000;23;20009;-48
2021/05/05 09:04:04;;;;;;;3.88;1.17;;;;;;;;;;6184675;23;19997;-48
2021/05/05 09:06:48;;;;;;;6.93;0.75;;;;;;;;;;6185676;23;20005;-47
2021/05/05 09:09:30;;;;;;;1.40;1.10;;;;;;;;;;6186550;23;20004;-47
2021/05/05 09:11:56;;;;;;;3.03;0.50;;;;;;;;;;6186937;23;20401;-47
2021/05/05 09:14:22;;;;;;;4.05;1.15;;;;;;;;;;6185792;23;20058;-48
2021/05/05 09:16:48;;;;;;;1.88;0.63;;;;;;;;;;6187057;23;20025;-47
2021/05/05 09:19:14;;;;;;;3.20;1.15;;;;;;;;;;6186019;23;20064;-47
2021/05/05 09:21:42;;;;;;;0.70;0.70;;;;;;;;;;6187071;23;20004;-47
2021/05/05 09:24:19;;;;;;;7.43;1.35;;;;;;;;;;6186382;23;20009;-46
2021/05/05 09:26:46;;;;;;;1.30;0.82;;;;;;;;;;6186738;23;20021;-47
2021/05/05 09:29:12;;;;;;;9.27;1.45;;;;;;;;;;6186066;23;20405;-47
2021/05/05 09:31:40;;;;;;;3.25;0.85;;;;;;;;;;6186719;23;20012;-46
2021/05/05 09:34:09;;;;;;;0.73;0.50;;;;;;;;;;6187287;23;20005;-48
2021/05/05 09:36:35;;;;;;;0.93;0.85;;;;;;;;;;6187185;23;20072;-46
2021/05/05 09:39:02;;;;;;;1.60;0.57;;;;;;;;;;6186049;23;20016;-47
2021/05/05 09:41:30;;;;;;;3.50;1.20;;;;;;;;;;6186497;23;20001;-46
2021/05/05 09:44:00;;;;;;;1.73;0.70;;;;;;;;;;6186660;23;20005;-48
2021/05/05 09:46:26;;;;;;;;;;;;;;;;;;6187591;23;20000;-47
2021/05/05 09:48:52;;;;;;;2.20;0.68;;;;;;;;;;6185528;23;19900;-47
2021/05/05 09:51:18;;;;;;;0.40;0.40;;;;;;;;;;6186232;23;20313;-47
2021/05/05 09:53:47;;;;;;;2.90;0.82;;;;;;;;;;6186456;23;20009;-47
2021/05/05 09:56:13;;;;;;;3.45;1.27;;;;;;;;;;6186694;23;20001;-46
2021/05/05 09:58:42;;;;;;;0.35;0.35;;;;;;;;;;6186340;23;20507;-47
2021/05/05 10:01:11;;;;;;;4.03;0.90;;;;;;;;;;6160314;23;20012;-47
2021/05/05 10:03:43;;;;;;;4.13;0.63;;;;;;;;;;6186663;23;20012;-47
2021/05/05 10:06:18;;;;;;;0.30;0.30;;;;;;;;;;6186335;23;20005;-46
2021/05/05 10:08:44;;;;;;;0.50;0.50;;;;;;;;;;6185631;23;20306;-47
2021/05/05 10:11:11;;;;;;;3.03;0.90;;;;;;;;;;6185851;23;20405;-46
2021/05/05 10:13:37;;;;;;;3.22;1.10;;;;;;;;;;6186250;23;20456;-46
2021/05/05 10:16:03;;;;;;;10.98;1.20;;;;;;;;;;6186468;23;20005;-46
2021/05/05 10:18:29;;;;;;;0.90;0.65;;;;;;;;;;6184768;23;20309;-48
2021/05/05 10:20:57;;;;;;;1.85;0.75;;;;;;;;;;6185899;23;20421;-47
2021/05/05 10:23:24;;;;;;;2.22;1.52;;;;;;;;;;6186621;23;20008;-47
2021/05/05 10:25:50;;;;;;;0.40;0.40;;;;;;;;;;6186118;23;20008;-46
2021/05/05 10:28:17;;;;;;;9.20;1.20;;;;;;;;;;6186432;23;20025;-47
2021/05/05 10:30:43;;;;;;;2.22;0.98;;;;;;;;;;6186068;23;20008;-47
2021/05/05 10:33:21;;;;;;;2.17;0.75;;;;;;;;;;6185964;23;20005;-47
2021/05/05 10:35:47;;;;;;;0.85;0.60;;;;;;;;;;6185821;23;20300;-48
2021/05/05 10:38:32;;;;;;;1.58;1.10;;;;;;;;;;6186170;23;20028;-47
2021/05/05 10:41:09;;;;;;;1.65;1.00;;;;;;;;;;6185931;23;20012;-47
2021/05/05 10:43:53;;;;;;;2.97;0.90;;;;;;;;;;6186135;23;20012;-47
2021/05/05 10:46:26;;;;;;;1.48;0.80;;;;;;;;;;6185702;23;20409;-47
2021/05/05 10:49:01;;;;;;;0.80;0.77;;;;;;;;;;6185510;23;20004;-46
2021/05/05 10:51:49;;;;;;;1.10;0.82;;;;;;;;;;6185733;23;20055;-47
2021/05/05 10:54:19;;;;;;;4.90;1.48;;;;;;;;;;6185704;23;20279;-47
2021/05/05 10:57:04;;;;;;;3.25;0.98;;;;;;;;;;6185821;23;20061;-47
2021/05/05 10:59:30;;;;;;;1.42;0.45;;;;;;;;;;6185552;23;20035;-47
2021/05/05 11:01:56;;;;;;;1.60;1.08;;;;;;;;;;6185469;23;20572;-46
2021/05/05 11:04:22;;;;;;;0.57;0.57;;;;;;;;;;6186012;23;20035;-47
2021/05/05 11:06:53;;;;;;;1.17;0.80;;;;;;;;;;6186150;23;20321;-47
2021/05/05 11:09:19;;;;;;;3.58;0.82;;;;;;;;;;6185317;23;20319;-47
2021/05/05 11:11:46;;;;;;;0.70;0.70;;;;;;;;;;6185865;23;20348;-47
2021/05/05 11:14:24;;;;;;;0.93;0.93;;;;;;;;;;6185454;23;20287;-47
2021/05/05 11:19:37;;;;;;;3.03;0.50;;;;;;;;;;6184950;23;20077;-46
2021/05/05 11:22:18;;;;;;;2.75;0.77;;;;;;;;;;6185899;23;20009;-47
2021/05/05 11:24:45;;;;;;;0.50;0.50;;;;;;;;;;6185540;23;20305;-47
2021/05/05 11:27:12;;;;;;;0.40;0.40;;;;;;;;;;6185686;23;20001;-47
2021/05/05 11:29:50;;;;;;;2.75;0.73;;;;;;;;;;6184646;23;20005;-47
2021/05/05 11:32:16;;;;;;;6.40;0.90;;;;;;;;;;6186028;23;20005;-48
2021/05/05 11:34:46;;;;;;;0.85;0.85;;;;;;;;;;6185836;23;20059;-46
2021/05/05 11:37:14;;;;;;;1.00;0.83;;;;;;;;;;6185585;23;20001;-46
2021/05/05 11:39:47;;;;;;;4.00;1.70;;;;;;;;;;6184911;23;20240;-46
2021/05/05 11:42:14;;;;;;;0.70;0.70;;;;;;;;;;6185178;23;20279;-47
2021/05/05 11:45:01;;;;;;;2.42;0.88;;;;;;;;;;6185532;23;20036;-47
2021/05/05 11:47:28;;;;;;;1.02;0.60;;;;;;;;;;6185316;23;20455;-47
2021/05/05 11:49:55;;;;;;;0.60;0.57;;;;;;;;;;6184050;23;20004;-46
2021/05/05 11:52:33;;;;;;;2.42;0.90;;;;;;;;;;6185377;23;20390;-47
2021/05/05 11:55:08;;;;;;;1.73;0.70;;;;;;;;;;6185642;23;20048;-47
2021/05/05 11:57:41;;;;;;;0.70;0.70;;;;;;;;;;6186157;23;20092;-48
2021/05/05 12:00:11;;;;;;;3.70;0.73;;;;;;;;;;6184885;23;20001;-46
2021/05/05 12:02:55;;;;;;;0.75;0.52;;;;;;;;;;6185847;23;20052;-47
2021/05/05 12:05:23;;;;;;;1.92;0.82;;;;;;;;;;6185613;23;20001;-48
2021/05/05 12:08:07;;;;;;;2.63;0.55;;;;;;;;;;6185442;23;20028;-47
2021/05/05 12:10:33;;;;;;;1.95;0.70;;;;;;;;;;6184809;23;20079;-47
2021/05/05 12:13:06;;;;;;;0.30;0.30;;;;;;;;;;6185366;23;20448;-47
2021/05/05 12:15:34;;;;;;;4.00;0.90;;;;;;;;;;6185431;23;20001;-46
2021/05/05 12:18:06;;;;;;;2.30;0.70;;;;;;;;;;6184795;23;20009;-47
2021/05/05 12:20:32;;;;;;;1.67;0.90;;;;;;;;;;6184970;23;20063;-47
2021/05/05 12:23:00;;;;;;;0.65;0.50;;;;;;;;;;6185205;23;20064;-48
2021/05/05 12:25:30;;;;;;;2.50;0.70;;;;;;;;;;6185218;23;20409;-47
2021/05/05 12:27:56;;;;;;;;;;;;;;;;;;6185576;23;20001;-47
2021/05/05 12:30:22;;;;;;;8.68;1.00;;;;;;;;;;6185194;23;19995;-48
2021/05/05 12:32:49;;;;;;;3.75;1.10;;;;;;;;;;6185662;23;20009;-47
2021/05/05 12:35:22;;;;;;;4.78;0.80;;;;;;;;;;6184961;23;20420;-47
2021/05/05 12:37:49;;;;;;;3.10;1.20;;;;;;;;;;6184862;23;20017;-47
2021/05/05 12:40:15;;;;;;;1.02;0.70;;;;;;;;;;6184842;23;20462;-47
2021/05/05 12:42:41;;;;;;;1.77;0.73;;;;;;;;;;6186825;23;20001;-46
2021/05/05 12:45:14;;;;;;;1.13;0.43;;;;;;;;;;6187293;23;20008;-46
2021/05/05 12:47:41;;;;;;;2.83;0.90;;;;;;;;;;6187250;23;20009;-47
2021/05/05 12:50:08;;;;;;;3.50;0.82;;;;;;;;;;6186765;23;20036;-47
2021/05/05 12:52:36;;;;;;;2.05;0.70;;;;;;;;;;6186267;23;20001;-47
2021/05/05 12:55:21;;;;;;;0.82;0.70;;;;;;;;;;6184934;23;20020;-47
2021/05/05 12:58:06;;;;;;;2.28;0.93;;;;;;;;;;6186076;23;20425;-47
2021/05/05 13:00:32;;;;;;;1.60;1.05;;;;;;;;;;6184630;23;20001;-47
2021/05/05 13:03:00;;;;;;;1.92;1.02;;;;;;;;;;6185995;23;20044;-48
2021/05/05 13:05:26;;;;;;;2.92;0.90;;;;;;;;;;6186744;23;19997;-48
2021/05/05 13:07:52;;;;;;;1.08;0.70;;;;;;;;;;6187075;23;20008;-47
2021/05/05 13:10:21;;;;;;;0.25;0.25;;;;;;;;;;6185783;23;20000;-46
2021/05/05 13:13:05;;;;;;;1.30;0.57;;;;;;;;;;6187206;23;20009;-47
2021/05/05 13:31:27;;;;;;;0.75;0.70;;;;;;;;;;6186577;23;20035;-48
2021/05/05 13:33:53;;;;;;;;;;;;;;;;;;6186033;23;20080;-48
2021/05/05 13:36:19;;;;;;;4.97;1.00;;;;;;;;;;6185414;23;19932;-49
2021/05/05 13:38:45;;;;;;;0.65;0.60;;;;;;;;;;6186432;23;20009;-47
2021/05/05 13:41:11;;;;;;;3.10;0.57;;;;;;;;;;6186728;23;20397;-47
2021/05/05 13:48:49;;;;;;;4.78;0.60;;;;;;;;;;6185997;23;20017;-47
2021/05/05 13:51:16;;;;;;;1.65;0.60;;;;;;;;;;6186269;23;20416;-47
2021/05/05 13:53:47;;;;;;;0.63;0.63;;;;;;;;;;6186545;23;20036;-47
2021/05/05 13:56:16;;;;;;;0.20;0.20;;;;;;;;;;6186598;23;20005;-48
2021/05/05 13:58:43;;;;;;;1.02;0.50;;;;;;;;;;6186181;23;20019;-46
2021/05/05 14:01:09;;;;;;;1.00;0.60;;;;;;;;;;6186470;23;20004;-46
2021/05/05 14:03:35;;;;;;;1.63;0.57;;;;;;;;;;6186640;23;20011;-47
2021/05/05 14:06:01;;;;;;;0.82;0.50;;;;;;;;;;6185790;23;20001;-48
2021/05/05 14:08:27;;;;;;;0.52;0.52;;;;;;;;;;6186210;23;20001;-47
2021/05/05 14:10:54;;;;;;;0.40;0.40;;;;;;;;;;6185368;23;20409;-48
2021/05/05 14:13:20;;;;;;;1.20;0.77;;;;;;;;;;6185660;23;20004;-47
2021/05/05 14:15:49;;;;;;;0.90;0.50;;;;;;;;;;6186435;23;20116;-47
2021/05/05 14:18:15;;;;;;;2.08;0.60;;;;;;;;;;6186273;23;20017;-47
2021/05/05 14:20:41;;;;;;;5.30;0.60;;;;;;;;;;6185702;23;20012;-46
2021/05/05 14:23:07;;;;;;;1.30;0.77;;;;;;;;;;6185834;23;20378;-47
2021/05/05 14:25:34;;;;;;;1.02;0.40;;;;;;;;;;6186103;23;19997;-48
2021/05/05 14:28:01;;;;;;;0.50;0.40;;;;;;;;;;6185272;23;20008;-46
2021/05/05 14:30:28;;;;;;;0.80;0.77;;;;;;;;;;6184151;23;20079;-47
2021/05/05 14:32:58;;;;;;;3.78;0.52;;;;;;;;;;6184636;23;20047;-46
2021/05/05 14:35:24;;;;;;;0.50;0.50;;;;;;;;;;6185977;23;20337;-47
2021/05/05 14:37:55;;;;;;;0.80;0.60;;;;;;;;;;6185863;23;20405;-46
2021/05/05 14:40:22;;;;;;;1.40;0.77;;;;;;;;;;6185991;23;20001;-47
2021/05/05 14:43:03;;;;;;;0.40;0.40;;;;;;;;;;6185808;23;20016;-47
2021/05/05 14:48:07;;;;;;;0.63;0.50;;;;;;;;;;6185498;23;20013;-47
2021/05/05 14:50:33;;;;;;;1.15;0.77;;;;;;;;;;6185363;23;20005;-47
2021/05/05 14:52:59;;;;;;;2.08;0.50;;;;;;;;;;6185524;23;20270;-47
2021/05/05 14:55:26;;;;;;;0.40;0.40;;;;;;;;;;6185868;23;20404;-47
2021/05/05 15:00:38;;;;;;;0.70;0.40;;;;;;;;;;6185742;23;20039;-47
2021/05/05 15:03:04;;;;;;;0.73;0.63;;;;;;;;;;6184434;23;20005;-47
2021/05/05 15:05:31;;;;;;;0.32;0.32;;;;;;;;;;6184019;23;20274;-47
2021/05/05 15:08:00;;;;;;;2.42;0.85;;;;;;;;;;6185415;23;20008;-48
2021/05/05 15:13:14;;;;;;;3.05;0.70;;;;;;;;;;6184865;23;20112;-48
2021/05/05 15:36:33;;;;;;;5.18;0.80;;;;;;;;;;6186132;23;20017;-48
2021/05/05 15:39:08;;;;;;;0.65;0.60;;;;;;;;;;6184895;23;20067;-47
2021/05/05 15:41:47;;;;;;;0.95;0.63;;;;;;;;;;6185660;23;20021;-47
2021/05/05 15:44:41;;;;;;;3.20;0.70;;;;;;;;;;6185771;23;20040;-47
2021/05/05 15:49:34;;;;;;;2.67;0.77;;;;;;;;;;6185597;23;20349;-48
2021/05/05 15:52:02;;;;;;;0.68;0.65;;;;;;;;;;6185451;23;20011;-48
2021/05/05 15:54:28;;;;;;;2.22;0.75;;;;;;;;;;6185270;23;20064;-48